createdAt,value
2023-01-26T00:01:16.879Z,1.38
2023-01-26T00:04:05.659Z,1.38
2023-01-26T00:06:54.166Z,1.43
2023-01-26T00:09:42.667Z,1.51
2023-01-26T00:12:31.302Z,1.53
2023-01-26T00:15:21.263Z,1.48
2023-01-26T00:18:10.467Z,1.55
2023-01-26T00:20:59.245Z,1.72
2023-01-26T00:23:48.110Z,1.77
2023-01-26T00:26:36.697Z,1.81
2023-01-26T00:29:25.185Z,1.80
2023-01-26T00:32:15.077Z,1.69
2023-01-26T00:35:03.683Z,1.67
2023-01-26T00:37:52.214Z,1.68
2023-01-26T00:40:40.912Z,1.69
2023-01-26T00:43:29.386Z,1.63
2023-01-26T00:46:17.935Z,1.69
2023-01-26T00:49:07.848Z,1.57
2023-01-26T00:51:56.310Z,1.61
2023-01-26T00:54:44.774Z,1.58
2023-01-26T00:57:33.286Z,1.52
2023-01-26T01:00:21.927Z,1.25
2023-01-26T01:03:10.523Z,1.19
2023-01-26T01:06:00.361Z,1.17
2023-01-26T01:08:48.916Z,1.11
2023-01-26T01:11:37.469Z,1.23
2023-01-26T01:14:25.993Z,1.10
2023-01-26T01:17:14.508Z,1.19
2023-01-26T01:20:03.360Z,1.18
2023-01-26T01:22:53.479Z,1.23
2023-01-26T01:25:41.975Z,1.26
2023-01-26T01:28:30.536Z,1.30
2023-01-26T01:31:19.142Z,1.32
2023-01-26T01:34:08.120Z,1.31
2023-01-26T01:36:56.668Z,1.32
2023-01-26T01:39:46.516Z,1.35
2023-01-26T01:42:35.198Z,1.34
2023-01-26T01:45:44.325Z,1.37
2023-01-26T01:48:37.659Z,1.42
2023-01-26T01:51:32.440Z,1.54
2023-01-26T01:54:25.168Z,1.60
2023-01-26T01:57:27.766Z,1.57
2023-01-26T02:00:18.849Z,1.52
2023-01-26T02:03:12.710Z,1.57
2023-01-26T02:06:03.121Z,1.62
2023-01-26T02:08:53.236Z,1.47
2023-01-26T02:11:44.874Z,1.45
2023-01-26T02:14:35.116Z,1.35
2023-01-26T02:17:23.729Z,1.37
2023-01-26T02:20:16.788Z,1.37
2023-01-26T02:23:11.445Z,1.42
2023-01-26T02:26:05.675Z,1.48
2023-01-26T02:28:54.658Z,1.50
2023-01-26T02:31:43.598Z,1.44
2023-01-26T02:34:32.156Z,1.37
2023-01-26T02:37:20.673Z,1.32
2023-01-26T02:40:14.424Z,1.04
2023-01-26T02:43:04.433Z,1.52
2023-01-26T02:45:53.926Z,0.77
2023-01-26T02:49:00.135Z,1.40
2023-01-26T02:51:48.661Z,1.38
2023-01-26T02:54:54.546Z,1.33
2023-01-26T02:57:43.922Z,1.36
2023-01-26T03:00:37.211Z,1.32
2023-01-26T03:03:41.357Z,1.25
2023-01-26T03:06:30.144Z,1.24
2023-01-26T03:09:18.741Z,1.24
2023-01-26T03:12:07.434Z,1.13
2023-01-26T03:15:09.856Z,1.06
2023-01-26T03:18:30.790Z,1.09
2023-01-26T03:21:36.930Z,1.05
2023-01-26T03:24:43.062Z,1.09
2023-01-26T03:27:32.982Z,1.01
2023-01-26T03:30:21.477Z,1.05
2023-01-26T03:33:11.348Z,1.09
2023-01-26T03:35:59.944Z,1.05
2023-01-26T03:38:48.497Z,1.08
2023-01-26T03:41:54.336Z,0.82
2023-01-26T03:45:00.590Z,1.14
2023-01-26T03:48:06.852Z,1.18
2023-01-26T03:51:14.325Z,1.15
2023-01-26T03:54:20.141Z,1.18
2023-01-26T03:57:08.579Z,1.18
2023-01-26T03:59:57.103Z,1.20
2023-01-26T04:03:03.348Z,1.25
2023-01-26T04:06:15.510Z,1.31
2023-01-26T04:09:06.518Z,1.38
2023-01-26T04:11:55.026Z,1.37
2023-01-26T04:15:00.892Z,1.39
2023-01-26T04:18:07.226Z,1.39
2023-01-26T04:21:13.394Z,1.36
2023-01-26T04:24:09.437Z,1.10
2023-01-26T04:26:59.285Z,1.44
2023-01-26T04:29:47.869Z,1.41
2023-01-26T04:32:36.509Z,1.40
2023-01-26T04:35:24.966Z,1.37
2023-01-26T04:38:13.424Z,1.30
2023-01-26T04:41:02.124Z,1.38
2023-01-26T04:43:52.108Z,1.32
2023-01-26T04:46:40.569Z,1.34
2023-01-26T04:49:29.073Z,1.38
2023-01-26T04:52:17.812Z,1.44
2023-01-26T04:55:06.843Z,1.40
2023-01-26T04:57:59.958Z,1.47
2023-01-26T05:00:53.934Z,1.65
2023-01-26T05:03:42.450Z,1.44
2023-01-26T05:06:31.022Z,1.41
2023-01-26T05:09:19.720Z,1.37
2023-01-26T05:12:22.307Z,1.32
2023-01-26T05:15:11.388Z,1.28
2023-01-26T05:18:01.539Z,1.28
2023-01-26T05:20:50.075Z,1.37
2023-01-26T05:23:38.658Z,1.32
2023-01-26T05:26:27.306Z,1.18
2023-01-26T05:29:15.980Z,1.22
2023-01-26T05:32:04.577Z,1.22
2023-01-26T05:34:54.549Z,1.12
2023-01-26T05:37:43.489Z,1.14
2023-01-26T05:40:32.036Z,0.93
2023-01-26T05:43:20.474Z,1.17
2023-01-26T05:46:09.092Z,1.12
2023-01-26T05:48:57.627Z,1.10
2023-01-26T05:51:47.441Z,1.10
2023-01-26T05:54:36.019Z,1.10
2023-01-26T05:57:24.499Z,1.12
2023-01-26T06:00:14.150Z,1.01
2023-01-26T06:03:02.746Z,0.95
2023-01-26T06:05:55.155Z,1.05
2023-01-26T06:08:45.019Z,1.07
2023-01-26T06:11:34.415Z,0.99
2023-01-26T06:14:22.920Z,1.11
2023-01-26T06:17:11.689Z,1.15
2023-01-26T06:20:00.134Z,1.07
2023-01-26T06:22:48.665Z,0.98
2023-01-26T06:25:39.363Z,0.99
2023-01-26T06:28:27.995Z,0.96
2023-01-26T06:31:16.643Z,0.97
2023-01-26T06:34:05.670Z,0.96
2023-01-26T06:36:54.707Z,1.09
2023-01-26T06:39:43.245Z,1.02
2023-01-26T06:42:33.142Z,0.98
2023-01-26T06:45:21.715Z,0.97
2023-01-26T06:48:10.224Z,0.99
2023-01-26T06:50:59.167Z,1.02
2023-01-26T06:53:49.767Z,1.04
2023-01-26T06:56:38.264Z,1.07
2023-01-26T06:59:28.161Z,1.04
2023-01-26T07:02:19.223Z,1.02
2023-01-26T07:05:08.485Z,1.07
2023-01-26T07:07:56.987Z,1.06
2023-01-26T07:10:45.620Z,1.08
2023-01-26T07:13:34.468Z,1.01
2023-01-26T07:16:24.455Z,1.08
2023-01-26T07:19:12.921Z,1.52
2023-01-26T07:22:01.519Z,2.18
2023-01-26T07:24:50.084Z,2.11
2023-01-26T07:27:38.560Z,1.81
2023-01-26T07:30:27.576Z,1.57
2023-01-26T07:33:17.453Z,1.48
2023-01-26T07:36:06.585Z,1.42
2023-01-26T07:38:55.058Z,1.37
2023-01-26T07:41:43.515Z,1.37
2023-01-26T07:44:31.998Z,1.39
2023-01-26T07:47:20.530Z,1.22
2023-01-26T07:50:13.209Z,1.20
2023-01-26T07:53:01.767Z,1.24
2023-01-26T07:55:50.433Z,1.17
2023-01-26T07:58:39.243Z,1.16
2023-01-26T08:01:27.734Z,1.16
2023-01-26T08:04:16.343Z,1.06
2023-01-26T08:07:06.220Z,1.23
2023-01-26T08:09:54.838Z,1.29
2023-01-26T08:12:43.387Z,1.27
2023-01-26T08:15:31.884Z,1.21
2023-01-26T08:18:20.662Z,1.05
2023-01-26T08:21:09.894Z,1.04
2023-01-26T08:24:01.948Z,1.02
2023-01-26T08:26:50.566Z,1.07
2023-01-26T08:29:39.162Z,0.96
2023-01-26T08:32:27.698Z,1.04
2023-01-26T08:35:16.402Z,1.10
2023-01-26T08:38:05.404Z,1.03
2023-01-26T08:40:55.209Z,1.06
2023-01-26T08:43:43.897Z,0.76
2023-01-26T08:46:32.442Z,1.02
2023-01-26T08:49:20.884Z,0.97
2023-01-26T08:52:09.328Z,0.96
2023-01-26T08:54:57.854Z,0.92
2023-01-26T08:57:47.723Z,0.99
2023-01-26T09:00:36.243Z,1.06
2023-01-26T09:03:24.736Z,1.07
2023-01-26T09:06:14.660Z,1.08
2023-01-26T09:09:03.161Z,1.28
2023-01-26T09:11:51.659Z,1.18
2023-01-26T09:14:42.175Z,0.86
2023-01-26T09:17:30.699Z,1.21
2023-01-26T09:20:20.187Z,1.13
2023-01-26T09:23:08.838Z,1.08
2023-01-26T09:25:57.367Z,0.95
2023-01-26T09:28:45.872Z,0.98
2023-01-26T09:31:35.892Z,0.97
2023-01-26T09:34:25.269Z,0.98
2023-01-26T09:37:13.858Z,1.04
2023-01-26T09:40:02.402Z,0.97
2023-01-26T09:43:01.516Z,0.97
2023-01-26T09:45:57.790Z,0.88
2023-01-26T09:48:55.263Z,0.90
2023-01-26T09:51:47.658Z,1.01
2023-01-26T09:54:39.653Z,0.96
2023-01-26T09:57:31.951Z,1.00
2023-01-26T10:00:23.329Z,0.89
2023-01-26T10:03:19.866Z,1.03
2023-01-26T10:06:17.327Z,1.03
2023-01-26T10:09:12.926Z,1.05
2023-01-26T10:12:03.739Z,1.06
2023-01-26T10:14:57.303Z,1.01
2023-01-26T10:17:47.165Z,1.06
2023-01-26T10:20:37.023Z,1.09
2023-01-26T10:23:30.223Z,1.12
2023-01-26T10:26:20.094Z,1.08
2023-01-26T10:29:15.594Z,1.06
2023-01-26T10:32:04.847Z,1.07
2023-01-26T10:34:53.719Z,1.11
2023-01-26T10:37:42.252Z,1.08
2023-01-26T10:40:44.484Z,1.15
2023-01-26T10:43:37.041Z,1.11
2023-01-26T10:46:31.766Z,1.13
2023-01-26T10:49:21.957Z,1.18
2023-01-26T10:52:18.403Z,1.12
2023-01-26T10:55:13.737Z,1.13
2023-01-26T10:58:03.824Z,1.10
2023-01-26T11:00:56.513Z,1.17
2023-01-26T11:04:04.700Z,1.20
2023-01-26T11:06:53.358Z,1.26
2023-01-26T11:09:41.869Z,1.30
2023-01-26T11:12:30.364Z,1.23
2023-01-26T11:15:22.083Z,1.21
2023-01-26T11:18:22.358Z,1.22
2023-01-26T11:21:16.976Z,1.12
2023-01-26T11:24:07.089Z,1.16
2023-01-26T11:27:12.004Z,1.17
2023-01-26T11:30:19.166Z,0.85
2023-01-26T11:33:17.312Z,1.08
2023-01-26T11:36:12.377Z,1.07
2023-01-26T11:39:05.653Z,1.08
2023-01-26T11:42:06.238Z,1.25
2023-01-26T11:45:14.173Z,1.07
2023-01-26T11:48:14.390Z,1.03
2023-01-26T11:51:08.596Z,1.05
2023-01-26T11:54:08.201Z,1.02
2023-01-26T11:57:04.528Z,1.04
2023-01-26T11:59:55.603Z,0.84
2023-01-26T12:02:45.158Z,1.01
2023-01-26T12:05:43.190Z,0.87
2023-01-26T12:08:39.469Z,0.82
2023-01-26T12:11:31.850Z,0.89
2023-01-26T12:14:24.754Z,0.90
2023-01-26T12:17:29.365Z,0.87
2023-01-26T12:20:25.677Z,0.82
2023-01-26T12:23:30.987Z,0.82
2023-01-26T12:26:21.934Z,0.89
2023-01-26T12:29:17.300Z,0.95
2023-01-26T12:32:09.887Z,0.25
2023-01-26T12:34:59.024Z,0.90
2023-01-26T12:37:51.621Z,0.84
2023-01-26T12:40:45.694Z,0.81
2023-01-26T12:43:45.381Z,0.89
2023-01-26T12:46:37.647Z,0.90
2023-01-26T12:49:30.541Z,0.84
2023-01-26T12:52:24.448Z,0.58
2023-01-26T12:55:17.805Z,0.94
2023-01-26T12:58:13.887Z,0.93
2023-01-26T13:01:06.486Z,0.98
2023-01-26T13:03:56.456Z,1.01
2023-01-26T13:06:44.991Z,1.02
2023-01-26T13:09:33.479Z,1.02
2023-01-26T13:12:46.322Z,1.03
2023-01-26T13:15:36.245Z,0.94
2023-01-26T13:18:51.227Z,0.95
2023-01-26T13:21:45.141Z,0.87
2023-01-26T13:24:43.910Z,0.86
2023-01-26T13:27:34.279Z,1.08
2023-01-26T13:30:40.107Z,0.94
2023-01-26T13:33:28.669Z,0.94
2023-01-26T13:36:19.011Z,0.98
2023-01-26T13:39:14.308Z,0.99
2023-01-26T13:42:03.375Z,1.00
2023-01-26T13:44:57.101Z,1.01
2023-01-26T13:47:48.934Z,1.08
2023-01-26T13:50:38.655Z,1.24
2023-01-26T13:53:36.497Z,1.21
2023-01-26T13:56:28.473Z,1.24
2023-01-26T13:59:19.447Z,1.23
2023-01-26T14:02:21.466Z,0.70
2023-01-26T14:05:22.249Z,1.20
2023-01-26T14:08:14.509Z,1.12
2023-01-26T14:11:04.744Z,1.10
2023-01-26T14:13:56.154Z,0.75
2023-01-26T14:16:44.796Z,1.18
2023-01-26T14:19:33.295Z,1.10
2023-01-26T14:22:23.289Z,0.81
2023-01-26T14:25:12.151Z,1.07
2023-01-26T14:28:01.064Z,1.12
2023-01-26T14:30:53.109Z,1.07
2023-01-26T14:33:41.693Z,1.02
2023-01-26T14:36:36.998Z,1.12
2023-01-26T14:39:26.874Z,1.09
2023-01-26T14:42:16.715Z,1.09
2023-01-26T14:45:06.127Z,1.09
2023-01-26T14:47:54.939Z,1.28
2023-01-26T14:50:45.015Z,1.24
2023-01-26T14:53:33.818Z,1.20
2023-01-26T14:56:28.895Z,1.17
2023-01-26T14:59:22.311Z,1.19
2023-01-26T15:02:16.795Z,1.17
2023-01-26T15:05:13.634Z,1.08
2023-01-26T15:08:04.824Z,1.13
2023-01-26T15:11:18.170Z,1.07
2023-01-26T15:14:32.859Z,0.93
2023-01-26T15:17:29.895Z,0.85
2023-01-26T15:20:39.713Z,0.74
2023-01-26T15:23:30.678Z,0.68
2023-01-26T15:26:27.339Z,0.86
2023-01-26T15:29:25.276Z,0.83
2023-01-26T15:32:29.427Z,0.77
2023-01-26T15:35:25.797Z,0.73
2023-01-26T15:38:14.716Z,0.79
2023-01-26T15:41:03.460Z,0.47
2023-01-26T15:43:51.995Z,0.72
2023-01-26T15:46:41.886Z,0.67
2023-01-26T15:49:30.417Z,0.65
2023-01-26T15:52:21.278Z,0.58
2023-01-26T15:55:21.351Z,0.63
2023-01-26T15:58:09.859Z,0.59
2023-01-26T16:00:58.959Z,0.63
2023-01-26T16:03:49.050Z,0.59
2023-01-26T16:06:37.666Z,0.56
2023-01-26T16:09:26.181Z,0.21
2023-01-26T16:12:30.396Z,0.28
2023-01-26T16:15:25.906Z,0.58
2023-01-26T16:18:14.717Z,0.28
2023-01-26T16:21:15.013Z,0.65
2023-01-26T16:24:04.207Z,0.65
2023-01-26T16:26:52.686Z,0.67
2023-01-26T16:29:41.206Z,0.70
2023-01-26T16:32:30.663Z,0.70
2023-01-26T16:35:21.184Z,0.59
2023-01-26T16:38:13.028Z,0.61
2023-01-26T16:41:01.575Z,0.67
2023-01-26T16:43:50.088Z,0.61
2023-01-26T16:46:38.540Z,0.56
2023-01-26T16:49:29.417Z,0.58
2023-01-26T16:52:17.948Z,0.32
2023-01-26T16:55:12.765Z,0.60
2023-01-26T16:58:01.360Z,0.63
2023-01-26T17:00:50.042Z,0.61
2023-01-26T17:03:38.571Z,0.63
2023-01-26T17:06:27.075Z,0.38
2023-01-26T17:09:15.785Z,0.57
2023-01-26T17:12:06.254Z,0.62
2023-01-26T17:14:55.028Z,0.66
2023-01-26T17:17:45.559Z,0.56
2023-01-26T17:20:34.128Z,0.59
2023-01-26T17:23:22.736Z,0.55
2023-01-26T17:26:13.138Z,0.56
2023-01-26T17:29:02.971Z,0.66
2023-01-26T17:31:52.473Z,0.67
2023-01-26T17:34:40.975Z,0.40
2023-01-26T17:37:31.533Z,0.64
2023-01-26T17:40:20.260Z,0.64
2023-01-26T17:43:08.751Z,0.77
2023-01-26T17:46:06.710Z,0.70
2023-01-26T17:48:55.670Z,0.62
2023-01-26T17:51:46.819Z,0.59
2023-01-26T17:54:35.575Z,0.45
2023-01-26T17:57:24.078Z,0.58
2023-01-26T18:00:14.370Z,0.56
2023-01-26T18:03:04.242Z,0.56
2023-01-26T18:05:53.261Z,0.53
2023-01-26T18:08:42.013Z,0.51
2023-01-26T18:11:30.475Z,0.49
2023-01-26T18:14:19.076Z,0.24
2023-01-26T18:17:07.609Z,0.46
2023-01-26T18:19:57.446Z,0.49
2023-01-26T18:22:45.926Z,0.45
2023-01-26T18:25:35.350Z,0.51
2023-01-26T18:28:23.874Z,0.54
2023-01-26T18:31:13.332Z,0.51
2023-01-26T18:34:03.098Z,0.52
2023-01-26T18:36:52.992Z,0.49
2023-01-26T18:39:41.474Z,0.16
2023-01-26T18:42:29.960Z,0.60
2023-01-26T18:45:18.609Z,0.57
2023-01-26T18:48:07.451Z,0.52
2023-01-26T18:50:55.988Z,0.45
2023-01-26T18:53:46.290Z,0.45
2023-01-26T18:56:36.186Z,0.46
2023-01-26T18:59:24.708Z,0.45
2023-01-26T19:02:14.672Z,0.46
2023-01-26T19:05:03.181Z,0.42
2023-01-26T19:07:51.711Z,0.35
2023-01-26T19:10:41.694Z,0.41
2023-01-26T19:13:30.351Z,0.41
2023-01-26T19:16:19.022Z,0.41
2023-01-26T19:19:08.496Z,0.54
2023-01-26T19:21:56.988Z,0.58
2023-01-26T19:24:46.026Z,0.69
2023-01-26T19:27:35.862Z,0.64
2023-01-26T19:30:24.368Z,0.64
2023-01-26T19:33:24.961Z,0.22
2023-01-26T19:36:13.522Z,0.63
2023-01-26T19:39:02.301Z,0.55
2023-01-26T19:41:50.842Z,0.56
2023-01-26T19:44:40.719Z,0.54
2023-01-26T19:47:29.277Z,0.57
2023-01-26T19:50:18.143Z,0.62
2023-01-26T19:53:07.700Z,0.63
2023-01-26T19:55:56.383Z,0.57
2023-01-26T19:58:45.417Z,0.53
2023-01-26T20:01:35.766Z,0.48
2023-01-26T20:04:24.251Z,0.60
2023-01-26T20:07:12.740Z,0.59
2023-01-26T20:10:01.250Z,0.52
2023-01-26T20:12:49.814Z,0.53
2023-01-26T20:15:38.323Z,0.42
2023-01-26T20:18:28.497Z,0.42
2023-01-26T20:21:17.114Z,0.40
2023-01-26T20:24:06.917Z,0.33
2023-01-26T20:26:55.939Z,0.40
2023-01-26T20:29:44.500Z,0.38
2023-01-26T20:32:34.325Z,0.35
2023-01-26T20:35:24.197Z,0.40
2023-01-26T20:38:12.711Z,0.31
2023-01-26T20:41:01.282Z,0.40
2023-01-26T20:43:59.259Z,-0.12
2023-01-26T20:46:48.881Z,0.35
2023-01-26T20:49:37.827Z,0.34
2023-01-26T20:52:27.689Z,0.35
2023-01-26T20:55:16.257Z,0.31
2023-01-26T20:58:06.900Z,0.29
2023-01-26T21:00:55.555Z,0.29
2023-01-26T21:03:44.553Z,0.29
2023-01-26T21:06:33.257Z,0.29
2023-01-26T21:09:23.097Z,0.30
2023-01-26T21:12:11.653Z,0.38
2023-01-26T21:15:00.132Z,0.36
2023-01-26T21:17:48.626Z,0.35
2023-01-26T21:20:37.096Z,0.31
2023-01-26T21:23:25.680Z,-0.23
2023-01-26T21:26:17.020Z,-0.63
2023-01-26T21:29:06.263Z,0.27
2023-01-26T21:31:54.709Z,0.28
2023-01-26T21:34:43.304Z,0.27
2023-01-26T21:37:32.969Z,0.26
2023-01-26T21:40:21.872Z,0.25
2023-01-26T21:43:11.921Z,0.26
2023-01-26T21:46:00.580Z,0.24
2023-01-26T21:48:49.090Z,0.25
2023-01-26T21:51:55.574Z,0.21
2023-01-26T21:54:44.045Z,0.27
2023-01-26T21:57:50.119Z,0.24
2023-01-26T22:00:43.144Z,0.17
2023-01-26T22:03:32.001Z,0.21
2023-01-26T22:06:20.631Z,0.25
2023-01-26T22:09:12.700Z,0.23
2023-01-26T22:12:01.180Z,0.23
2023-01-26T22:14:51.745Z,0.17
2023-01-26T22:17:41.648Z,0.21
2023-01-26T22:20:30.133Z,0.25
2023-01-26T22:23:18.593Z,0.23
2023-01-26T22:26:08.253Z,0.22
2023-01-26T22:28:58.736Z,0.22
2023-01-26T22:31:47.346Z,0.22
2023-01-26T22:34:37.230Z,0.16
2023-01-26T22:37:25.667Z,0.23
2023-01-26T22:40:15.442Z,0.22
2023-01-26T22:43:04.023Z,0.14
2023-01-26T22:45:52.612Z,0.23
2023-01-26T22:48:41.146Z,0.20
2023-01-26T22:51:32.099Z,0.23
2023-01-26T22:54:20.527Z,0.27
2023-01-26T22:57:09.007Z,0.31
2023-01-26T22:59:58.136Z,0.37
2023-01-26T23:02:46.625Z,0.27
2023-01-26T23:05:35.590Z,0.41
2023-01-26T23:08:25.559Z,0.42
2023-01-26T23:11:15.867Z,0.35
2023-01-26T23:14:04.489Z,0.31
2023-01-26T23:16:52.957Z,0.34
2023-01-26T23:19:41.440Z,0.42
2023-01-26T23:22:29.937Z,0.37
2023-01-26T23:25:36.987Z,0.36
2023-01-26T23:28:26.912Z,0.33
2023-01-26T23:31:17.522Z,0.29
2023-01-26T23:34:06.154Z,0.30
2023-01-26T23:36:54.659Z,0.29
2023-01-26T23:39:43.119Z,0.24
2023-01-26T23:42:41.536Z,0.12
2023-01-26T23:45:38.647Z,0.13
2023-01-26T23:48:27.350Z,0.23
2023-01-26T23:51:16.318Z,0.28
2023-01-26T23:54:04.871Z,0.25
2023-01-26T23:56:53.390Z,0.34
2023-01-26T23:59:43.258Z,0.26
